sensor_id;sensor_type;location;lat;lon;timestamp;P1;durP1;ratioP1;P2;durP2;ratioP2
51292;SDS011;37377;45.186;9.778;2024-02-23T15:12:00;14.2;;;12.7;;
51292;SDS011;37377;45.186;9.778;2024-02-23T15:13:00;14.2;;;12.7;;
51292;SDS011;37377;45.186;9.778;2024-02-23T15:14:01;14.2;;;12.7;;
51292;SDS011;37377;45.186;9.778;2024-02-23T15:15:00;12.5;;;11.5;;
51292;SDS011;37377;45.186;9.778;2024-02-23T15:16:00;12.5;;;11.5;;
51292;SDS011;37377;45.186;9.778;2024-02-23T15:17:00;12.5;;;11.5;;
51292;SDS011;37377;45.186;9.778;2024-02-23T15:18:00;12.2;;;11.1;;
51292;SDS011;37377;45.186;9.778;2024-02-23T15:19:00;12.2;;;11.1;;
51292;SDS011;37377;45.186;9.778;2024-02-23T15:20:00;12.2;;;11.1;;
51292;SDS011;37377;45.186;9.778;2024-02-23T15:21:00;12.7;;;11.4;;
51292;SDS011;37377;45.186;9.778;2024-02-23T15:22:00;12.7;;;11.4;;
51292;SDS011;37377;45.186;9.778;2024-02-23T15:23:01;12.7;;;11.4;;
51292;SDS011;37377;45.186;9.778;2024-02-23T15:24:00;12.2;;;11.1;;
51292;SDS011;37377;45.186;9.778;2024-02-23T15:25:00;12.2;;;11.1;;
51292;SDS011;37377;45.186;9.778;2024-02-23T15:27:00;11.9;;;10.9;;
51292;SDS011;37377;45.186;9.778;2024-02-23T15:28:00;11.9;;;10.9;;
51292;SDS011;37377;45.186;9.778;2024-02-23T15:29:03;11.9;;;10.9;;
51292;SDS011;37377;45.186;9.778;2024-02-23T15:30:00;12.6;;;11.4;;
51292;SDS011;37377;45.186;9.778;2024-02-23T15:31:02;12.6;;;11.4;;
51292;SDS011;37377;45.186;9.778;2024-02-23T15:32:01;12.6;;;11.4;;
51292;SDS011;37377;45.186;9.778;2024-02-23T15:33:00;13.2;;;12.0;;
51292;SDS011;37377;45.186;9.778;2024-02-23T15:34:02;13.2;;;12.0;;
51292;SDS011;37377;45.186;9.778;2024-02-23T15:35:02;13.2;;;12.0;;
51292;SDS011;37377;45.186;9.778;2024-02-23T15:36:04;12.2;;;11.1;;
51292;SDS011;37377;45.186;9.778;2024-02-23T15:37:00;12.2;;;11.1;;
51292;SDS011;37377;45.186;9.778;2024-02-23T15:38:00;12.2;;;11.1;;
51292;SDS011;37377;45.186;9.778;2024-02-23T15:39:06;12.7;;;11.6;;
51292;SDS011;37377;45.186;9.778;2024-02-23T15:40:01;12.7;;;11.6;;
51292;SDS011;37377;45.186;9.778;2024-02-23T15:42:00;11.5;;;10.5;;
51292;SDS011;37377;45.186;9.778;2024-02-23T15:43:04;11.5;;;10.5;;
51292;SDS011;37377;45.186;9.778;2024-02-23T15:44:01;11.5;;;10.5;;
51292;SDS011;37377;45.186;9.778;2024-02-23T15:45:00;13.7;;;12.4;;
51292;SDS011;37377;45.186;9.778;2024-02-23T15:46:00;13.7;;;12.4;;
51292;SDS011;37377;45.186;9.778;2024-02-23T15:47:00;13.7;;;12.4;;
51292;SDS011;37377;45.186;9.778;2024-02-23T15:48:00;13.2;;;12.1;;
51292;SDS011;37377;45.186;9.778;2024-02-23T15:49:00;13.2;;;12.1;;
51292;SDS011;37377;45.186;9.778;2024-02-23T15:52:02;13.0;;;12.0;;
51292;SDS011;37377;45.186;9.778;2024-02-23T15:53:04;13.0;;;12.0;;
51292;SDS011;37377;45.186;9.778;2024-02-23T15:54:00;13.1;;;12.0;;
51292;SDS011;37377;45.186;9.778;2024-02-23T15:55:00;13.1;;;12.0;;
51292;SDS011;37377;45.186;9.778;2024-02-23T15:56:00;13.1;;;12.0;;
51292;SDS011;37377;45.186;9.778;2024-02-23T15:57:00;27.7;;;13.1;;
51292;SDS011;37377;45.186;9.778;2024-02-23T15:58:00;27.7;;;13.1;;
51292;SDS011;37377;45.186;9.778;2024-02-23T15:59:01;27.7;;;13.1;;
51292;SDS011;37377;45.186;9.778;2024-02-23T16:00:04;14.8;;;13.6;;
51292;SDS011;37377;45.186;9.778;2024-02-23T16:01:00;14.8;;;13.6;;
51292;SDS011;37377;45.186;9.778;2024-02-23T16:02:02;14.8;;;13.6;;
51292;SDS011;37377;45.186;9.778;2024-02-23T16:03:00;12.9;;;11.8;;
51292;SDS011;37377;45.186;9.778;2024-02-23T16:04:00;12.9;;;11.8;;
51292;SDS011;37377;45.186;9.778;2024-02-23T16:05:01;12.9;;;11.8;;
51292;SDS011;37377;45.186;9.778;2024-02-23T16:06:00;12.9;;;11.8;;
51292;SDS011;37377;45.186;9.778;2024-02-23T16:07:00;12.9;;;11.8;;
51292;SDS011;37377;45.186;9.778;2024-02-23T16:08:04;12.9;;;11.8;;
51292;SDS011;37377;45.186;9.778;2024-02-23T16:09:00;14.4;;;13.3;;
51292;SDS011;37377;45.186;9.778;2024-02-23T16:10:00;14.4;;;13.3;;
51292;SDS011;37377;45.186;9.778;2024-02-23T16:11:00;14.4;;;13.3;;
51292;SDS011;37377;45.186;9.778;2024-02-23T16:12:00;14.0;;;13.0;;
51292;SDS011;37377;45.186;9.778;2024-02-23T16:13:02;14.0;;;13.0;;
51292;SDS011;37377;45.186;9.778;2024-02-23T16:14:00;14.0;;;13.0;;
51292;SDS011;37377;45.186;9.778;2024-02-23T16:15:00;16.0;;;14.6;;
51292;SDS011;37377;45.186;9.778;2024-02-23T16:16:00;16.0;;;14.6;;
51292;SDS011;37377;45.186;9.778;2024-02-23T16:17:02;16.0;;;14.6;;
51292;SDS011;37377;45.186;9.778;2024-02-23T16:18:00;15.2;;;13.8;;
51292;SDS011;37377;45.186;9.778;2024-02-23T16:19:00;15.2;;;13.8;;
51292;SDS011;37377;45.186;9.778;2024-02-23T16:20:00;15.2;;;13.8;;
51292;SDS011;37377;45.186;9.778;2024-02-23T16:21:01;16.1;;;14.5;;
51292;SDS011;37377;45.186;9.778;2024-02-23T16:22:01;16.1;;;14.5;;
51292;SDS011;37377;45.186;9.778;2024-02-23T16:23:02;16.1;;;14.5;;
51292;SDS011;37377;45.186;9.778;2024-02-23T16:24:00;16.5;;;15.0;;
51292;SDS011;37377;45.186;9.778;2024-02-23T16:25:00;16.5;;;15.0;;
51292;SDS011;37377;45.186;9.778;2024-02-23T16:26:00;16.5;;;15.0;;
51292;SDS011;37377;45.186;9.778;2024-02-23T16:27:00;16.6;;;15.3;;
51292;SDS011;37377;45.186;9.778;2024-02-23T16:28:00;16.6;;;15.3;;
51292;SDS011;37377;45.186;9.778;2024-02-23T16:29:01;16.6;;;15.3;;
51292;SDS011;37377;45.186;9.778;2024-02-23T16:30:00;18.8;;;17.1;;
51292;SDS011;37377;45.186;9.778;2024-02-23T16:31:00;18.8;;;17.1;;
51292;SDS011;37377;45.186;9.778;2024-02-23T16:32:00;18.8;;;17.1;;
51292;SDS011;37377;45.186;9.778;2024-02-23T16:33:00;17.4;;;16.0;;
51292;SDS011;37377;45.186;9.778;2024-02-23T16:34:00;17.4;;;16.0;;
51292;SDS011;37377;45.186;9.778;2024-02-23T16:35:00;17.4;;;16.0;;
51292;SDS011;37377;45.186;9.778;2024-02-23T16:36:00;18.3;;;16.7;;
51292;SDS011;37377;45.186;9.778;2024-02-23T16:37:00;18.3;;;16.7;;
51292;SDS011;37377;45.186;9.778;2024-02-23T16:38:00;18.3;;;16.7;;
51292;SDS011;37377;45.186;9.778;2024-02-23T16:39:00;20.3;;;18.7;;
51292;SDS011;37377;45.186;9.778;2024-02-23T16:40:00;20.3;;;18.7;;
51292;SDS011;37377;45.186;9.778;2024-02-23T16:41:00;20.3;;;18.7;;
51292;SDS011;37377;45.186;9.778;2024-02-23T16:42:00;23.9;;;21.9;;
51292;SDS011;37377;45.186;9.778;2024-02-23T16:43:00;23.9;;;21.9;;
51292;SDS011;37377;45.186;9.778;2024-02-23T16:44:01;23.9;;;21.9;;
51292;SDS011;37377;45.186;9.778;2024-02-23T16:45:00;22.8;;;20.9;;
51292;SDS011;37377;45.186;9.778;2024-02-23T16:46:00;22.8;;;20.9;;
51292;SDS011;37377;45.186;9.778;2024-02-23T16:47:00;22.8;;;20.9;;
51292;SDS011;37377;45.186;9.778;2024-02-23T16:48:06;22.7;;;20.8;;
51292;SDS011;37377;45.186;9.778;2024-02-23T16:49:00;22.7;;;20.8;;
51292;SDS011;37377;45.186;9.778;2024-02-23T16:50:00;22.7;;;20.8;;
51292;SDS011;37377;45.186;9.778;2024-02-23T16:51:00;25.6;;;23.1;;
51292;SDS011;37377;45.186;9.778;2024-02-23T16:52:00;25.6;;;23.1;;
51292;SDS011;37377;45.186;9.778;2024-02-23T16:53:00;25.6;;;23.1;;
51292;SDS011;37377;45.186;9.778;2024-02-23T16:54:00;26.9;;;24.4;;
51292;SDS011;37377;45.186;9.778;2024-02-23T16:55:00;26.9;;;24.4;;
51292;SDS011;37377;45.186;9.778;2024-02-23T16:56:00;26.9;;;24.4;;
51292;SDS011;37377;45.186;9.778;2024-02-23T16:57:00;26.2;;;23.9;;
51292;SDS011;37377;45.186;9.778;2024-02-23T16:58:00;26.2;;;23.9;;
51292;SDS011;37377;45.186;9.778;2024-02-23T16:59:00;26.2;;;23.9;;
51292;SDS011;37377;45.186;9.778;2024-02-23T17:00:00;28.3;;;25.5;;
51292;SDS011;37377;45.186;9.778;2024-02-23T17:01:01;28.3;;;25.5;;
51292;SDS011;37377;45.186;9.778;2024-02-23T17:02:00;28.3;;;25.5;;
51292;SDS011;37377;45.186;9.778;2024-02-23T17:03:00;27.9;;;25.4;;
51292;SDS011;37377;45.186;9.778;2024-02-23T17:04:00;27.9;;;25.4;;
51292;SDS011;37377;45.186;9.778;2024-02-23T17:05:00;27.9;;;25.4;;
51292;SDS011;37377;45.186;9.778;2024-02-23T17:06:01;28.5;;;25.7;;
51292;SDS011;37377;45.186;9.778;2024-02-23T17:07:01;28.5;;;25.7;;
51292;SDS011;37377;45.186;9.778;2024-02-23T17:08:00;28.5;;;25.7;;
51292;SDS011;37377;45.186;9.778;2024-02-23T17:09:00;28.8;;;26.1;;
51292;SDS011;37377;45.186;9.778;2024-02-23T17:10:00;28.8;;;26.1;;
51292;SDS011;37377;45.186;9.778;2024-02-23T17:11:01;28.8;;;26.1;;
51292;SDS011;37377;45.186;9.778;2024-02-23T17:12:00;33.5;;;30.2;;
51292;SDS011;37377;45.186;9.778;2024-02-23T17:13:00;33.5;;;30.2;;
51292;SDS011;37377;45.186;9.778;2024-02-23T17:14:00;33.5;;;30.2;;
51292;SDS011;37377;45.186;9.778;2024-02-23T17:15:00;28.1;;;25.6;;
51292;SDS011;37377;45.186;9.778;2024-02-23T17:16:00;28.1;;;25.6;;
51292;SDS011;37377;45.186;9.778;2024-02-23T17:17:01;28.1;;;25.6;;
51292;SDS011;37377;45.186;9.778;2024-02-23T17:18:00;26.7;;;24.2;;
51292;SDS011;37377;45.186;9.778;2024-02-23T17:19:00;26.7;;;24.2;;
51292;SDS011;37377;45.186;9.778;2024-02-23T17:20:00;26.7;;;24.2;;
51292;SDS011;37377;45.186;9.778;2024-02-23T17:21:02;26.5;;;24.0;;
51292;SDS011;37377;45.186;9.778;2024-02-23T17:22:00;26.5;;;24.0;;
51292;SDS011;37377;45.186;9.778;2024-02-23T17:23:00;26.5;;;24.0;;
51292;SDS011;37377;45.186;9.778;2024-02-23T17:24:00;25.3;;;23.0;;
51292;SDS011;37377;45.186;9.778;2024-02-23T17:25:00;25.3;;;23.0;;
51292;SDS011;37377;45.186;9.778;2024-02-23T17:26:00;25.3;;;23.0;;
51292;SDS011;37377;45.186;9.778;2024-02-23T17:27:00;30.4;;;27.5;;
51292;SDS011;37377;45.186;9.778;2024-02-23T17:28:00;30.4;;;27.5;;
51292;SDS011;37377;45.186;9.778;2024-02-23T17:29:00;30.4;;;27.5;;
51292;SDS011;37377;45.186;9.778;2024-02-23T17:30:00;31.5;;;28.3;;
51292;SDS011;37377;45.186;9.778;2024-02-23T17:31:00;31.5;;;28.3;;
51292;SDS011;37377;45.186;9.778;2024-02-23T17:32:00;31.5;;;28.3;;
51292;SDS011;37377;45.186;9.778;2024-02-23T17:33:00;29.8;;;27.0;;
51292;SDS011;37377;45.186;9.778;2024-02-23T17:34:00;29.8;;;27.0;;
51292;SDS011;37377;45.186;9.778;2024-02-23T17:35:00;29.8;;;27.0;;
51292;SDS011;37377;45.186;9.778;2024-02-23T17:36:00;30.0;;;26.9;;
51292;SDS011;37377;45.186;9.778;2024-02-23T17:37:00;30.0;;;26.9;;
51292;SDS011;37377;45.186;9.778;2024-02-23T17:38:01;30.0;;;26.9;;
51292;SDS011;37377;45.186;9.778;2024-02-23T17:39:00;29.2;;;26.4;;
51292;SDS011;37377;45.186;9.778;2024-02-23T17:40:00;29.2;;;26.4;;
51292;SDS011;37377;45.186;9.778;2024-02-23T17:41:01;29.2;;;26.4;;
51292;SDS011;37377;45.186;9.778;2024-02-23T17:42:03;29.2;;;26.1;;
51292;SDS011;37377;45.186;9.778;2024-02-23T17:43:00;29.2;;;26.1;;
51292;SDS011;37377;45.186;9.778;2024-02-23T17:44:00;29.2;;;26.1;;
51292;SDS011;37377;45.186;9.778;2024-02-23T17:45:00;29.2;;;26.1;;
51292;SDS011;37377;45.186;9.778;2024-02-23T17:46:00;29.2;;;26.1;;
51292;SDS011;37377;45.186;9.778;2024-02-23T17:47:01;29.2;;;26.1;;
51292;SDS011;37377;45.186;9.778;2024-02-23T17:48:00;27.9;;;25.2;;
51292;SDS011;37377;45.186;9.778;2024-02-23T17:49:00;27.9;;;25.2;;
51292;SDS011;37377;45.186;9.778;2024-02-23T17:50:01;27.9;;;25.2;;
51292;SDS011;37377;45.186;9.778;2024-02-23T17:51:01;29.4;;;26.5;;
51292;SDS011;37377;45.186;9.778;2024-02-23T17:52:00;29.4;;;26.5;;
51292;SDS011;37377;45.186;9.778;2024-02-23T17:53:00;29.4;;;26.5;;
51292;SDS011;37377;45.186;9.778;2024-02-23T17:54:00;29.7;;;26.9;;
51292;SDS011;37377;45.186;9.778;2024-02-23T17:55:00;29.7;;;26.9;;
51292;SDS011;37377;45.186;9.778;2024-02-23T17:56:00;29.7;;;26.9;;
51292;SDS011;37377;45.186;9.778;2024-02-23T17:57:01;38.6;;;34.5;;
51292;SDS011;37377;45.186;9.778;2024-02-23T17:59:00;38.6;;;34.5;;
51292;SDS011;37377;45.186;9.778;2024-02-23T18:00:03;39.3;;;35.2;;
51292;SDS011;37377;45.186;9.778;2024-02-23T18:01:00;39.3;;;35.2;;
51292;SDS011;37377;45.186;9.778;2024-02-23T18:02:01;39.3;;;35.2;;
51292;SDS011;37377;45.186;9.778;2024-02-23T18:03:02;36.2;;;32.6;;
51292;SDS011;37377;45.186;9.778;2024-02-23T18:04:00;36.2;;;32.6;;
51292;SDS011;37377;45.186;9.778;2024-02-23T18:05:00;36.2;;;32.6;;
51292;SDS011;37377;45.186;9.778;2024-02-23T18:06:00;36.6;;;33.0;;
51292;SDS011;37377;45.186;9.778;2024-02-23T18:07:00;36.6;;;33.0;;
51292;SDS011;37377;45.186;9.778;2024-02-23T18:08:00;36.6;;;33.0;;
51292;SDS011;37377;45.186;9.778;2024-02-23T18:09:00;32.0;;;28.8;;
51292;SDS011;37377;45.186;9.778;2024-02-23T18:10:00;32.0;;;28.8;;
51292;SDS011;37377;45.186;9.778;2024-02-23T18:11:04;32.0;;;28.8;;
51292;SDS011;37377;45.186;9.778;2024-02-23T18:12:00;32.3;;;29.0;;
51292;SDS011;37377;45.186;9.778;2024-02-23T18:13:01;32.3;;;29.0;;
51292;SDS011;37377;45.186;9.778;2024-02-23T18:14:00;32.3;;;29.0;;
51292;SDS011;37377;45.186;9.778;2024-02-23T18:15:00;29.7;;;26.9;;
51292;SDS011;37377;45.186;9.778;2024-02-23T18:16:03;29.7;;;26.9;;
51292;SDS011;37377;45.186;9.778;2024-02-23T18:17:00;29.7;;;26.9;;
51292;SDS011;37377;45.186;9.778;2024-02-23T18:18:00;28.9;;;26.3;;
51292;SDS011;37377;45.186;9.778;2024-02-23T18:19:03;28.9;;;26.3;;
51292;SDS011;37377;45.186;9.778;2024-02-23T18:20:00;28.9;;;26.3;;
51292;SDS011;37377;45.186;9.778;2024-02-23T18:21:02;29.7;;;26.7;;
51292;SDS011;37377;45.186;9.778;2024-02-23T18:22:00;29.7;;;26.7;;
51292;SDS011;37377;45.186;9.778;2024-02-23T18:23:00;29.7;;;26.7;;
51292;SDS011;37377;45.186;9.778;2024-02-23T18:24:01;36.7;;;33.0;;
51292;SDS011;37377;45.186;9.778;2024-02-23T18:30:00;33.2;;;29.7;;
51292;SDS011;37377;45.186;9.778;2024-02-23T18:31:00;33.2;;;29.7;;
51292;SDS011;37377;45.186;9.778;2024-02-23T18:32:00;33.2;;;29.7;;
51292;SDS011;37377;45.186;9.778;2024-02-23T18:33:00;33.8;;;30.2;;
51292;SDS011;37377;45.186;9.778;2024-02-23T18:34:00;33.8;;;30.2;;
51292;SDS011;37377;45.186;9.778;2024-02-23T18:35:00;33.8;;;30.2;;
51292;SDS011;37377;45.186;9.778;2024-02-23T18:36:00;34.7;;;30.9;;
51292;SDS011;37377;45.186;9.778;2024-02-23T18:37:01;34.7;;;30.9;;
51292;SDS011;37377;45.186;9.778;2024-02-23T18:38:00;34.7;;;30.9;;
51292;SDS011;37377;45.186;9.778;2024-02-23T18:39:00;36.1;;;32.2;;
51292;SDS011;37377;45.186;9.778;2024-02-23T18:40:00;36.1;;;32.2;;
51292;SDS011;37377;45.186;9.778;2024-02-23T18:41:02;36.1;;;32.2;;
51292;SDS011;37377;45.186;9.778;2024-02-23T18:42:00;38.0;;;34.1;;
51292;SDS011;37377;45.186;9.778;2024-02-23T18:43:00;38.0;;;34.1;;
51292;SDS011;37377;45.186;9.778;2024-02-23T18:44:02;38.0;;;34.1;;
51292;SDS011;37377;45.186;9.778;2024-02-23T18:45:01;41.0;;;36.7;;
51292;SDS011;37377;45.186;9.778;2024-02-23T18:46:00;41.0;;;36.7;;
51292;SDS011;37377;45.186;9.778;2024-02-23T18:47:00;41.0;;;36.7;;
51292;SDS011;37377;45.186;9.778;2024-02-23T18:48:00;37.4;;;33.5;;
51292;SDS011;37377;45.186;9.778;2024-02-23T18:49:00;37.4;;;33.5;;
51292;SDS011;37377;45.186;9.778;2024-02-23T18:50:00;37.4;;;33.5;;
51292;SDS011;37377;45.186;9.778;2024-02-23T18:51:02;38.5;;;34.7;;
51292;SDS011;37377;45.186;9.778;2024-02-23T18:52:00;38.5;;;34.7;;
51292;SDS011;37377;45.186;9.778;2024-02-23T18:53:00;38.5;;;34.7;;
51292;SDS011;37377;45.186;9.778;2024-02-23T18:54:00;43.8;;;39.2;;
51292;SDS011;37377;45.186;9.778;2024-02-23T18:55:00;43.8;;;39.2;;
51292;SDS011;37377;45.186;9.778;2024-02-23T18:56:00;43.8;;;39.2;;
51292;SDS011;37377;45.186;9.778;2024-02-23T18:57:01;43.2;;;38.6;;
51292;SDS011;37377;45.186;9.778;2024-02-23T18:58:01;43.2;;;38.6;;
51292;SDS011;37377;45.186;9.778;2024-02-23T18:59:00;43.2;;;38.6;;
51292;SDS011;37377;45.186;9.778;2024-02-23T19:00:00;43.4;;;39.0;;
51292;SDS011;37377;45.186;9.778;2024-02-23T19:01:01;43.4;;;39.0;;
51292;SDS011;37377;45.186;9.778;2024-02-23T19:02:00;43.4;;;39.0;;
51292;SDS011;37377;45.186;9.778;2024-02-23T19:03:00;43.0;;;38.6;;
51292;SDS011;37377;45.186;9.778;2024-02-23T19:04:00;43.0;;;38.6;;
51292;SDS011;37377;45.186;9.778;2024-02-23T19:05:01;43.0;;;38.6;;
51292;SDS011;37377;45.186;9.778;2024-02-23T19:06:00;43.0;;;38.6;;
51292;SDS011;37377;45.186;9.778;2024-02-23T19:07:00;43.0;;;38.6;;
51292;SDS011;37377;45.186;9.778;2024-02-23T19:08:00;43.0;;;38.6;;
51292;SDS011;37377;45.186;9.778;2024-02-23T19:09:04;47.5;;;42.1;;
51292;SDS011;37377;45.186;9.778;2024-02-23T19:10:00;47.5;;;42.1;;
51292;SDS011;37377;45.186;9.778;2024-02-23T19:11:01;47.5;;;42.1;;
51292;SDS011;37377;45.186;9.778;2024-02-23T19:12:01;77.9;;;63.7;;
51292;SDS011;37377;45.186;9.778;2024-02-23T19:13:00;77.9;;;63.7;;
51292;SDS011;37377;45.186;9.778;2024-02-23T19:16:00;94.1;;;76.4;;
51292;SDS011;37377;45.186;9.778;2024-02-23T19:17:00;94.1;;;76.4;;
51292;SDS011;37377;45.186;9.778;2024-02-23T19:18:00;94.1;;;76.4;;
51292;SDS011;37377;45.186;9.778;2024-02-23T19:29:02;44.6;;;39.8;;
51292;SDS011;37377;45.186;9.778;2024-02-23T19:31:00;42.5;;;38.1;;
51292;SDS011;37377;45.186;9.778;2024-02-23T19:32:00;42.5;;;38.1;;
51292;SDS011;37377;45.186;9.778;2024-02-23T19:35:00;45.2;;;39.3;;
51292;SDS011;37377;45.186;9.778;2024-02-23T19:36:00;45.2;;;39.3;;
51292;SDS011;37377;45.186;9.778;2024-02-23T19:39:01;44.9;;;40.0;;
51292;SDS011;37377;45.186;9.778;2024-02-23T19:41:03;47.5;;;42.6;;
51292;SDS011;37377;45.186;9.778;2024-02-23T19:42:00;55.8;;;45.3;;
51292;SDS011;37377;45.186;9.778;2024-02-23T19:43:00;55.8;;;45.3;;
51292;SDS011;37377;45.186;9.778;2024-02-23T19:48:00;58.9;;;52.5;;
51292;SDS011;37377;45.186;9.778;2024-02-23T19:52:00;59.8;;;52.7;;
51292;SDS011;37377;45.186;9.778;2024-02-23T19:54:00;59.8;;;52.7;;
51292;SDS011;37377;45.186;9.778;2024-02-23T19:57:00;53.2;;;47.5;;
51292;SDS011;37377;45.186;9.778;2024-02-23T20:02:00;52.8;;;47.0;;
51292;SDS011;37377;45.186;9.778;2024-02-23T20:07:03;58.2;;;50.3;;
51292;SDS011;37377;45.186;9.778;2024-02-23T20:15:03;58.4;;;52.0;;
51292;SDS011;37377;45.186;9.778;2024-02-23T20:16:00;66.5;;;55.8;;
51292;SDS011;37377;45.186;9.778;2024-02-23T20:19:00;63.1;;;53.6;;
51292;SDS011;37377;45.186;9.778;2024-02-23T20:20:00;63.1;;;53.6;;
51292;SDS011;37377;45.186;9.778;2024-02-23T20:22:00;74.5;;;63.3;;
51292;SDS011;37377;45.186;9.778;2024-02-23T20:30:00;72.1;;;63.5;;
51292;SDS011;37377;45.186;9.778;2024-02-23T20:33:00;75.3;;;65.9;;
51292;SDS011;37377;45.186;9.778;2024-02-23T20:36:00;75.3;;;65.9;;
51292;SDS011;37377;45.186;9.778;2024-02-23T20:37:00;75.8;;;65.9;;
51292;SDS011;37377;45.186;9.778;2024-02-23T20:38:00;unavailable;;;unavailable;;
51292;SDS011;37377;45.186;9.778;2024-02-23T20:40:02;78.5;;;68.1;;
51292;SDS011;37377;45.186;9.778;2024-02-23T20:41:01;78.5;;;68.1;;
51292;SDS011;37377;45.186;9.778;2024-02-23T20:42:00;80.9;;;71.0;;
51292;SDS011;37377;45.186;9.778;2024-02-23T20:44:01;80.9;;;71.0;;
51292;SDS011;37377;45.186;9.778;2024-02-23T20:45:00;80.9;;;71.0;;
51292;SDS011;37377;45.186;9.778;2024-02-23T20:46:00;80.2;;;67.6;;
51292;SDS011;37377;45.186;9.778;2024-02-23T20:50:00;77.0;;;67.4;;
51292;SDS011;37377;45.186;9.778;2024-02-23T20:52:00;76.6;;;67.1;;
51292;SDS011;37377;45.186;9.778;2024-02-23T20:53:00;76.6;;;67.1;;
51292;SDS011;37377;45.186;9.778;2024-02-23T20:54:00;76.6;;;67.1;;
51292;SDS011;37377;45.186;9.778;2024-02-23T20:55:00;82.5;;;70.9;;
51292;SDS011;37377;45.186;9.778;2024-02-23T20:58:00;85.7;;;68.9;;
51292;SDS011;37377;45.186;9.778;2024-02-23T20:59:01;85.7;;;68.9;;
51292;SDS011;37377;45.186;9.778;2024-02-23T21:06:00;82.6;;;67.8;;
51292;SDS011;37377;45.186;9.778;2024-02-23T21:07:00;82.6;;;67.8;;
51292;SDS011;37377;45.186;9.778;2024-02-23T21:08:00;82.6;;;67.8;;
51292;SDS011;37377;45.186;9.778;2024-02-23T21:09:00;82.6;;;67.8;;
51292;SDS011;37377;45.186;9.778;2024-02-23T21:10:00;80.4;;;67.1;;
51292;SDS011;37377;45.186;9.778;2024-02-23T21:11:00;80.4;;;67.1;;
51292;SDS011;37377;45.186;9.778;2024-02-23T21:13:01;93.2;;;76.0;;
51292;SDS011;37377;45.186;9.778;2024-02-23T21:14:00;93.2;;;76.0;;
51292;SDS011;37377;45.186;9.778;2024-02-23T21:17:00;85.0;;;70.5;;
51292;SDS011;37377;45.186;9.778;2024-02-23T21:18:00;85.0;;;70.5;;
51292;SDS011;37377;45.186;9.778;2024-02-23T21:19:01;92.8;;;81.6;;
51292;SDS011;37377;45.186;9.778;2024-02-23T21:20:01;92.8;;;81.6;;
51292;SDS011;37377;45.186;9.778;2024-02-23T21:22:02;unavailable;;;unavailable;;
51292;SDS011;37377;45.186;9.778;2024-02-23T21:23:00;96.4;;;83.6;;
51292;SDS011;37377;45.186;9.778;2024-02-23T21:24:04;unavailable;;;unavailable;;
51292;SDS011;37377;45.186;9.778;2024-02-23T21:25:00;94.0;;;80.2;;
51292;SDS011;37377;45.186;9.778;2024-02-23T21:27:00;82.8;;;69.9;;
51292;SDS011;37377;45.186;9.778;2024-02-23T21:28:00;82.8;;;69.9;;
51292;SDS011;37377;45.186;9.778;2024-02-23T21:30:07;81.8;;;69.7;;
51292;SDS011;37377;45.186;9.778;2024-02-23T21:31:03;81.8;;;69.7;;
51292;SDS011;37377;45.186;9.778;2024-02-23T21:32:00;81.8;;;69.7;;
51292;SDS011;37377;45.186;9.778;2024-02-23T21:34:01;83.3;;;69.2;;
51292;SDS011;37377;45.186;9.778;2024-02-23T21:35:00;83.3;;;69.2;;
51292;SDS011;37377;45.186;9.778;2024-02-23T21:36:01;83.3;;;69.2;;
51292;SDS011;37377;45.186;9.778;2024-02-23T21:40:00;75.7;;;59.9;;
51292;SDS011;37377;45.186;9.778;2024-02-23T21:41:01;75.7;;;59.9;;
51292;SDS011;37377;45.186;9.778;2024-02-23T21:42:00;83.3;;;62.4;;
51292;SDS011;37377;45.186;9.778;2024-02-23T21:43:00;83.3;;;62.4;;
51292;SDS011;37377;45.186;9.778;2024-02-23T21:44:00;83.3;;;62.4;;
51292;SDS011;37377;45.186;9.778;2024-02-23T21:46:00;78.7;;;60.7;;
51292;SDS011;37377;45.186;9.778;2024-02-23T21:48:00;78.7;;;60.7;;
51292;SDS011;37377;45.186;9.778;2024-02-23T21:52:05;87.4;;;70.1;;
51292;SDS011;37377;45.186;9.778;2024-02-23T21:53:00;87.4;;;70.1;;
51292;SDS011;37377;45.186;9.778;2024-02-23T21:55:00;89.7;;;72.1;;
51292;SDS011;37377;45.186;9.778;2024-02-23T21:56:03;89.7;;;72.1;;
51292;SDS011;37377;45.186;9.778;2024-02-23T21:57:00;84.5;;;68.7;;
51292;SDS011;37377;45.186;9.778;2024-02-23T21:58:00;84.5;;;68.7;;
51292;SDS011;37377;45.186;9.778;2024-02-23T21:59:00;84.5;;;68.7;;
51292;SDS011;37377;45.186;9.778;2024-02-23T22:00:00;97.0;;;77.0;;
51292;SDS011;37377;45.186;9.778;2024-02-23T22:01:01;97.0;;;77.0;;
51292;SDS011;37377;45.186;9.778;2024-02-23T22:02:05;97.0;;;77.0;;
51292;SDS011;37377;45.186;9.778;2024-02-23T22:05:01;96.1;;;75.8;;
51292;SDS011;37377;45.186;9.778;2024-02-23T22:06:00;93.7;;;73.6;;
51292;SDS011;37377;45.186;9.778;2024-02-23T22:14:00;106.6;;;81.5;;
51292;SDS011;37377;45.186;9.778;2024-02-23T22:15:03;123.2;;;89.2;;
51292;SDS011;37377;45.186;9.778;2024-02-23T22:16:00;123.2;;;89.2;;
51292;SDS011;37377;45.186;9.778;2024-02-23T22:17:02;123.2;;;89.2;;
51292;SDS011;37377;45.186;9.778;2024-02-23T22:18:00;111.4;;;54.5;;
51292;SDS011;37377;45.186;9.778;2024-02-23T22:19:00;111.4;;;54.5;;
51292;SDS011;37377;45.186;9.778;2024-02-23T22:20:00;111.4;;;54.5;;
51292;SDS011;37377;45.186;9.778;2024-02-23T22:21:02;111.4;;;54.5;;
51292;SDS011;37377;45.186;9.778;2024-02-23T22:22:00;131.5;;;42.5;;
51292;SDS011;37377;45.186;9.778;2024-02-23T22:23:00;131.5;;;42.5;;
51292;SDS011;37377;45.186;9.778;2024-02-23T22:25:00;83.4;;;47.9;;
51292;SDS011;37377;45.186;9.778;2024-02-23T22:27:00;70.4;;;50.2;;
51292;SDS011;37377;45.186;9.778;2024-02-23T22:28:00;70.4;;;50.2;;
51292;SDS011;37377;45.186;9.778;2024-02-23T22:29:00;70.4;;;50.2;;
51292;SDS011;37377;45.186;9.778;2024-02-23T22:32:00;94.6;;;59.2;;
51292;SDS011;37377;45.186;9.778;2024-02-23T22:34:00;95.3;;;62.5;;
51292;SDS011;37377;45.186;9.778;2024-02-23T22:35:00;95.3;;;62.5;;
51292;SDS011;37377;45.186;9.778;2024-02-23T22:36:00;unavailable;;;unavailable;;
51292;SDS011;37377;45.186;9.778;2024-02-23T22:39:00;110.4;;;53.2;;
51292;SDS011;37377;45.186;9.778;2024-02-23T22:40:00;110.4;;;53.2;;
51292;SDS011;37377;45.186;9.778;2024-02-23T22:41:00;110.4;;;53.2;;
51292;SDS011;37377;45.186;9.778;2024-02-23T22:42:01;112.9;;;44.1;;
51292;SDS011;37377;45.186;9.778;2024-02-23T22:43:00;112.9;;;44.1;;
51292;SDS011;37377;45.186;9.778;2024-02-23T22:44:00;112.9;;;44.1;;
51292;SDS011;37377;45.186;9.778;2024-02-23T22:45:00;112.9;;;44.1;;
51292;SDS011;37377;45.186;9.778;2024-02-23T22:46:00;105.8;;;46.1;;
51292;SDS011;37377;45.186;9.778;2024-02-23T22:47:00;105.8;;;46.1;;
51292;SDS011;37377;45.186;9.778;2024-02-23T22:49:01;127.9;;;49.3;;
51292;SDS011;37377;45.186;9.778;2024-02-23T22:50:00;127.9;;;49.3;;
51292;SDS011;37377;45.186;9.778;2024-02-23T22:54:00;80.8;;;58.0;;
51292;SDS011;37377;45.186;9.778;2024-02-23T22:55:00;80.8;;;58.0;;
51292;SDS011;37377;45.186;9.778;2024-02-23T22:56:00;80.8;;;58.0;;
51292;SDS011;37377;45.186;9.778;2024-02-23T22:57:00;80.8;;;58.0;;
51292;SDS011;37377;45.186;9.778;2024-02-23T23:01:01;120.0;;;72.5;;
51292;SDS011;37377;45.186;9.778;2024-02-23T23:04:00;101.2;;;66.0;;
51292;SDS011;37377;45.186;9.778;2024-02-23T23:05:00;101.2;;;66.0;;
51292;SDS011;37377;45.186;9.778;2024-02-23T23:06:00;97.9;;;65.0;;
51292;SDS011;37377;45.186;9.778;2024-02-23T23:07:01;97.9;;;65.0;;
51292;SDS011;37377;45.186;9.778;2024-02-23T23:08:00;97.9;;;65.0;;
51292;SDS011;37377;45.186;9.778;2024-02-23T23:13:00;86.8;;;64.1;;
51292;SDS011;37377;45.186;9.778;2024-02-23T23:15:01;82.4;;;61.4;;
51292;SDS011;37377;45.186;9.778;2024-02-23T23:16:00;82.4;;;61.4;;
51292;SDS011;37377;45.186;9.778;2024-02-23T23:17:00;82.4;;;61.4;;
51292;SDS011;37377;45.186;9.778;2024-02-23T23:20:04;85.3;;;66.2;;
51292;SDS011;37377;45.186;9.778;2024-02-23T23:21:02;85.3;;;66.2;;